Главная страница
METAR-TAF:

METAR-TAF

Аэропорты :

Актау, Казахстан

широта: 43-52-12N, долгота: 051-06E, высота над уровнем моря: 22 м

Текущие метеонаблюдения

Эта сводка был подготовлена 24 минут назад, в 02:30 UTC
Ветер 6 Узел от северо-западный, изменяющийся между западный и северно-северо-западный
Температура 22°C
Влажность 57%
Давление 1013 hPa
Видимость 10 км и более
Нет облачности ниже 1500 м, и нет кучево-дождевой облачности

METAR: UATE 210230Z 31003MPS 280V340 CAVOK 22/13 Q1013 R30/0///70 NOSIG RMK QFE758/1011

Время: 07:54 (02:54 UTC)

Прогноз

Эта сводка был подготовлена 3 часа и 51 минут назад, в 23:03 UTC
Прогноз действительный с 21-го 00 UTC до 21-го 24 UTC
Ветер 4 Узел переменных направлений
Видимость 10 км и более
изменения
С 21-го 06 UTC до 21-го 08 UTC
Ветер 12 Узел от западный с порывами до 23 Узел

TAF: UATE 202303Z 2100/2124 VRB02MPS 9999 NSC TX30/2110Z TN18/2102Z BECMG 2106/2108 27006G12MPS

Метеонаблюдения и прогнозы для более 4000 аэропортов (сводки METAR и TAF).

Имеющиеся станции представлены на карте желтыми и красными точками.

Чтобы увидеть название станции, наведите на нее мышь.

Затем щелкните, чтобы увидеть метеонаблюдения и метеопрогнозы.

Управление картой: чтобы увеличить масштаб, щелкните зеленые кнопки с черным крестиком; чтобы уменьшить масштаб, щелкните зеленую кнопку с тире; для просмотра соседних карт щелкайте зеленые стрелки.


METAR-TAF: